Terminal Aerodrome Forecast
Issued by NWS

Home | Current Version | Previous Version | Text Only | Print | Product List | Glossary On
Versions: 1 2 3 4 5 6 7 8 9 10 11 12 13
000
FTUS41 KCAR 280535
TAFBHB
TAF
KBHB 280535Z 2806/2906 13005KT P6SM OVC060
     FM281400 13004KT P6SM OVC020
     FM282200 19006KT 2SM BR OVC005=

USA.gov is the U.S. government's official web portal to all federal, state and local government web resources and services.